Time;durP1;ratioP1;P1;durP2;ratioP2;P2;SDS_P1;SDS_P2;PMS_P1;PMS_P2;Temp;Humidity;BMP_temperature;BMP_pressure;BME280_temperature;BME280_humidity;BME280_pressure;Samples;Min_cycle;Max_cycle;Signal;HPM_P1;HPM_P2
2021/10/02 00:34:15;;;;;;;6.75;4.97;;;12.40;99.90;;;;;;1937672;73;21106;-75
2021/10/02 00:36:33;;;;;;;;;;;12.40;99.90;;;;;;1941793;72;21472;-75
2021/10/02 00:41:57;;;;;;;6.53;4.95;;;12.40;99.90;;;;;;1940497;72;21120;-74
2021/10/02 00:47:00;;;;;;;8.05;5.55;;;12.30;99.90;;;;;;1929187;73;21068;-74
2021/10/02 00:49:26;;;;;;;6.05;4.78;;;12.30;99.90;;;;;;1952700;73;21146;-75
2021/10/02 00:51:52;;;;;;;7.45;4.87;;;12.20;99.90;;;;;;1935404;72;21136;-74
2021/10/02 00:54:19;;;;;;;9.48;5.58;;;12.20;99.90;;;;;;1940197;72;21070;-75
2021/10/02 00:56:45;;;;;;;6.10;4.90;;;12.10;99.90;;;;;;1938710;72;21070;-75
2021/10/02 00:59:11;;;;;;;7.62;5.42;;;12.10;99.90;;;;;;1926515;73;21159;-75
2021/10/02 01:01:37;;;;;;;10.10;5.00;;;12.10;99.90;;;;;;1930526;72;21163;-75
2021/10/02 01:04:04;;;;;;;5.62;5.10;;;12.10;99.90;;;;;;1936925;73;21074;-74
2021/10/02 01:06:31;;;;;;;8.00;5.22;;;12.10;99.90;;;;;;1951960;72;21077;-75
2021/10/02 01:08:58;;;;;;;7.33;5.87;;;12.00;99.90;;;;;;1935190;72;21122;-75
2021/10/02 01:11:24;;;;;;;9.10;6.45;;;12.00;99.90;;;;;;1922096;73;21079;-75
2021/10/02 01:13:51;;;;;;;9.15;5.85;;;12.00;99.90;;;;;;1940133;72;21074;-75
2021/10/02 01:16:17;;;;;;;9.15;6.47;;;12.00;99.90;;;;;;1937227;73;21367;-75
2021/10/02 01:18:43;;;;;;;8.95;6.12;;;12.00;99.90;;;;;;1936200;72;21269;-75
2021/10/02 01:21:10;;;;;;;7.90;6.28;;;11.90;99.90;;;;;;1924516;73;21510;-75
2021/10/02 01:23:37;;;;;;;12.15;6.30;;;12.00;99.90;;;;;;1935917;73;21136;-75
2021/10/02 01:26:03;;;;;;;9.20;6.42;;;12.00;99.90;;;;;;1944136;73;21078;-75
2021/10/02 01:28:29;;;;;;;12.28;6.42;;;12.00;99.90;;;;;;1943951;72;21156;-76
2021/10/02 01:31:02;;;;;;;8.13;5.90;;;11.90;99.90;;;;;;1929406;73;21235;-76
2021/10/02 01:33:29;;;;;;;8.78;5.92;;;11.90;99.90;;;;;;1930121;72;21115;-74
2021/10/02 01:35:58;;;;;;;9.05;6.37;;;12.00;99.90;;;;;;1932278;72;21196;-74
2021/10/02 01:49:15;;;;;;;11.08;6.72;;;11.90;99.90;;;;;;1951152;72;21091;-74
2021/10/02 01:51:41;;;;;;;11.35;6.62;;;11.90;99.90;;;;;;1935423;72;21143;-74
2021/10/02 01:54:07;;;;;;;8.08;6.67;;;11.80;99.90;;;;;;1943321;72;21083;-74
2021/10/02 01:56:34;;;;;;;7.53;5.83;;;11.80;99.90;;;;;;1946231;72;21119;-73
2021/10/02 01:59:00;;;;;;;10.60;7.03;;;12.00;99.90;;;;;;1945355;73;21069;-74
2021/10/02 02:01:26;;;;;;;11.40;6.45;;;11.90;99.90;;;;;;1929086;73;21069;-74
2021/10/02 02:03:55;;;;;;;7.67;6.53;;;12.00;99.90;;;;;;1930825;73;21058;-73
2021/10/02 02:06:20;;;;;;;10.98;6.65;;;12.00;99.90;;;;;;1925990;73;21519;-74
2021/10/02 02:08:46;;;;;;;9.93;6.40;;;12.10;99.90;;;;;;1930830;73;21490;-74
2021/10/02 02:11:12;;;;;;;8.73;6.42;;;12.00;99.90;;;;;;1932701;72;21437;-73
2021/10/02 02:13:38;;;;;;;6.87;5.97;;;12.10;99.90;;;;;;1934693;72;21545;-74
2021/10/02 02:16:04;;;;;;;11.63;6.40;;;12.00;99.90;;;;;;1940727;73;21620;-74
2021/10/02 02:18:30;;;;;;;7.25;6.33;;;12.00;99.90;;;;;;1931885;73;21093;-73
2021/10/02 02:20:56;;;;;;;10.18;7.12;;;12.10;99.90;;;;;;1934756;73;21135;-73
2021/10/02 02:23:28;;;;;;;9.08;6.78;;;12.00;99.90;;;;;;1940875;72;21073;-73
2021/10/02 02:25:54;;;;;;;8.33;6.20;;;12.00;99.90;;;;;;1945603;72;21066;-74
2021/10/02 02:28:21;;;;;;;9.35;6.92;;;11.90;99.90;;;;;;1927628;73;21071;-75
2021/10/02 02:30:47;;;;;;;10.88;6.95;;;11.90;99.90;;;;;;1925538;73;21074;-74
2021/10/02 02:33:13;;;;;;;9.13;6.37;;;11.90;99.90;;;;;;1934843;73;21081;-74
2021/10/02 02:35:39;;;;;;;9.98;6.60;;;11.80;99.90;;;;;;1927895;73;21075;-74
2021/10/02 02:38:06;;;;;;;7.87;6.17;;;11.90;99.90;;;;;;1944122;72;21082;-74
2021/10/02 02:40:32;;;;;;;9.25;6.00;;;11.80;99.90;;;;;;1934753;72;21563;-74
2021/10/02 02:42:58;;;;;;;8.88;6.62;;;11.80;99.90;;;;;;1948887;72;21530;-74
2021/10/02 02:45:24;;;;;;;8.58;6.28;;;11.90;99.90;;;;;;1941398;72;21437;-74
2021/10/02 02:47:50;;;;;;;11.00;6.95;;;11.90;99.90;;;;;;1936938;73;21474;-74
2021/10/02 02:50:16;;;;;;;11.25;5.97;;;11.90;99.90;;;;;;1941705;72;21546;-75
2021/10/02 02:52:42;;;;;;;10.28;6.05;;;11.90;99.90;;;;;;1948177;72;21514;-74
2021/10/02 02:55:08;;;;;;;16.85;6.80;;;11.90;99.90;;;;;;1936714;73;21628;-74
2021/10/02 02:57:35;;;;;;;10.23;6.65;;;11.80;99.90;;;;;;1947064;73;21073;-74
2021/10/02 03:00:01;;;;;;;8.73;6.40;;;11.80;99.90;;;;;;1946874;72;21143;-74
2021/10/02 03:02:27;;;;;;;11.30;6.15;;;11.80;99.90;;;;;;1929632;73;21126;-74
2021/10/02 03:04:53;;;;;;;9.50;6.10;;;11.80;99.90;;;;;;1922212;73;21151;-74
2021/10/02 03:07:19;;;;;;;6.75;6.05;;;11.80;99.90;;;;;;1929052;73;21074;-74
2021/10/02 03:09:45;;;;;;;10.88;6.62;;;11.80;99.90;;;;;;1936136;73;21082;-74
2021/10/02 03:12:11;;;;;;;9.20;6.83;;;11.80;99.90;;;;;;1933259;73;21131;-74
2021/10/02 03:14:37;;;;;;;7.12;5.90;;;11.80;99.90;;;;;;1928515;72;21082;-74
2021/10/02 03:17:04;;;;;;;8.85;6.72;;;11.70;99.90;;;;;;1943102;72;21061;-75
2021/10/02 03:19:30;;;;;;;12.98;6.53;;;11.80;99.90;;;;;;1944034;72;21274;-74
2021/10/02 03:21:56;;;;;;;7.97;6.10;;;11.70;99.90;;;;;;1950085;73;22494;-74
2021/10/02 03:24:22;;;;;;;8.93;6.30;;;11.70;99.90;;;;;;1931533;73;21194;-74
2021/10/02 03:26:48;;;;;;;8.78;6.20;;;11.70;99.90;;;;;;1929756;73;21069;-74
2021/10/02 03:29:14;;;;;;;7.75;6.20;;;11.70;99.90;;;;;;1922412;73;21125;-75
2021/10/02 03:31:42;;;;;;;11.93;6.20;;;11.80;99.90;;;;;;1940745;73;21117;-75
2021/10/02 03:34:08;;;;;;;10.38;6.00;;;11.80;99.90;;;;;;1942699;72;21128;-74
2021/10/02 03:36:34;;;;;;;7.78;5.97;;;11.90;99.90;;;;;;1940508;72;21070;-74
2021/10/02 03:39:00;;;;;;;11.78;6.83;;;11.80;99.90;;;;;;1932998;73;21526;-74
2021/10/02 03:41:26;;;;;;;7.75;5.83;;;11.80;99.90;;;;;;1939629;72;21494;-74
2021/10/02 03:43:52;;;;;;;8.85;5.97;;;11.80;99.90;;;;;;1938629;72;21040;-74
2021/10/02 03:46:19;;;;;;;9.63;6.30;;;11.70;99.90;;;;;;1927722;73;21077;-74
2021/10/02 03:48:45;;;;;;;8.05;6.47;;;11.60;99.90;;;;;;1929915;73;21065;-74
2021/10/02 03:51:11;;;;;;;13.55;6.28;;;11.60;99.90;;;;;;1948762;72;21077;-74
2021/10/02 03:53:37;;;;;;;10.60;6.42;;;11.60;99.90;;;;;;1942373;73;21194;-74
2021/10/02 03:56:04;;;;;;;10.65;6.40;;;11.60;99.90;;;;;;1928025;72;21167;-75
2021/10/02 03:58:30;;;;;;;8.55;6.17;;;11.60;99.90;;;;;;1935980;72;21082;-74
2021/10/02 04:00:56;;;;;;;7.33;6.05;;;11.50;99.90;;;;;;1948798;72;21148;-74
2021/10/02 04:03:23;;;;;;;9.40;6.90;;;11.50;99.90;;;;;;1939287;72;21034;-75
2021/10/02 04:05:49;;;;;;;9.38;6.45;;;11.50;99.90;;;;;;1949980;73;21121;-74
2021/10/02 04:08:15;;;;;;;8.25;6.20;;;11.50;99.90;;;;;;1931396;73;21070;-74
2021/10/02 04:10:41;;;;;;;11.33;6.80;;;11.50;99.90;;;;;;1943602;72;21270;-74
2021/10/02 04:13:08;;;;;;;7.97;6.05;;;11.60;99.90;;;;;;1922253;73;21039;-75
2021/10/02 04:15:34;;;;;;;6.67;5.83;;;11.60;99.90;;;;;;1945294;72;21082;-75
2021/10/02 04:18:01;;;;;;;7.50;5.35;;;11.60;99.90;;;;;;1934453;73;21070;-76
2021/10/02 04:20:27;;;;;;;9.03;5.58;;;11.60;99.90;;;;;;1941538;72;21153;-76
2021/10/02 04:22:53;;;;;;;7.00;5.50;;;11.60;99.90;;;;;;1925297;73;21074;-74
2021/10/02 04:25:19;;;;;;;5.70;5.15;;;11.70;99.90;;;;;;1937283;72;21155;-75
2021/10/02 04:27:45;;;;;;;14.70;6.42;;;11.60;99.90;;;;;;1946298;72;21274;-73
2021/10/02 04:30:11;;;;;;;9.95;5.87;;;11.70;99.90;;;;;;1928759;73;21152;-76
2021/10/02 04:32:37;;;;;;;7.05;5.03;;;11.70;99.90;;;;;;1929449;73;21497;-73
2021/10/02 04:35:03;;;;;;;6.97;5.28;;;11.70;99.90;;;;;;1938907;72;21438;-76
2021/10/02 04:37:30;;;;;;;9.30;6.20;;;11.70;99.90;;;;;;1934620;73;21497;-75
2021/10/02 04:39:56;;;;;;;13.13;6.85;;;11.60;99.90;;;;;;1922737;73;21514;-76
2021/10/02 04:42:22;;;;;;;10.08;6.53;;;11.50;99.90;;;;;;1943105;73;21486;-76
2021/10/02 04:44:48;;;;;;;9.43;6.58;;;11.50;99.90;;;;;;1944515;72;21490;-75
2021/10/02 04:47:14;;;;;;;8.43;6.28;;;11.50;99.90;;;;;;1932977;72;21035;-76
2021/10/02 04:49:40;;;;;;;8.40;6.03;;;11.60;99.90;;;;;;1932932;73;21078;-76
2021/10/02 04:52:06;;;;;;;9.38;6.00;;;11.60;99.90;;;;;;1937859;73;21062;-75
2021/10/02 04:54:32;;;;;;;15.15;6.75;;;11.50;99.90;;;;;;1934063;73;21073;-76
2021/10/02 04:56:59;;;;;;;10.15;6.12;;;11.50;99.90;;;;;;1933683;73;21075;-76
2021/10/02 04:59:25;;;;;;;8.08;6.72;;;11.50;99.90;;;;;;1921969;73;21066;-75
2021/10/02 05:01:51;;;;;;;9.53;6.40;;;11.70;99.90;;;;;;1928160;73;21139;-75
2021/10/02 05:04:17;;;;;;;10.18;6.40;;;11.70;99.90;;;;;;1936315;73;21065;-75
2021/10/02 05:06:43;;;;;;;8.65;6.40;;;11.60;99.90;;;;;;1931604;73;21072;-74
2021/10/02 05:09:09;;;;;;;11.90;6.35;;;11.70;99.90;;;;;;1934737;73;21196;-75
2021/10/02 05:11:35;;;;;;;9.33;6.17;;;11.70;99.90;;;;;;1933357;72;21151;-74
2021/10/02 05:14:01;;;;;;;10.43;6.30;;;11.50;99.90;;;;;;1929956;73;21082;-75
2021/10/02 05:16:28;;;;;;;6.83;5.70;;;11.40;99.90;;;;;;1941226;73;21597;-74
2021/10/02 05:18:54;;;;;;;11.65;5.67;;;11.50;99.90;;;;;;1924255;73;21499;-74
2021/10/02 05:21:20;;;;;;;7.92;5.65;;;11.50;99.90;;;;;;1930429;73;21465;-76
2021/10/02 05:23:46;;;;;;;9.13;5.28;;;11.40;99.90;;;;;;1926573;73;21566;-74
2021/10/02 05:26:12;;;;;;;9.70;5.58;;;11.30;99.90;;;;;;1936537;73;21928;-74
2021/10/02 05:28:38;;;;;;;7.78;5.58;;;11.40;99.90;;;;;;1939744;73;21120;-74
2021/10/02 05:31:04;;;;;;;8.10;5.92;;;11.30;99.90;;;;;;1934221;73;21123;-75
2021/10/02 05:33:31;;;;;;;6.72;5.40;;;11.30;99.90;;;;;;1940871;72;21197;-75
2021/10/02 05:35:57;;;;;;;8.45;6.20;;;11.40;99.90;;;;;;1926292;73;21140;-75
2021/10/02 05:38:23;;;;;;;5.65;5.12;;;11.40;99.90;;;;;;1922753;73;21073;-75
2021/10/02 05:40:49;;;;;;;10.43;5.58;;;11.40;99.90;;;;;;1927005;73;21069;-75
2021/10/02 05:43:15;;;;;;;8.28;6.55;;;11.40;99.90;;;;;;1933582;73;21153;-76
2021/10/02 05:48:26;;;;;;;8.65;5.60;;;11.40;99.90;;;;;;1883611;75;21561;-75
2021/10/02 05:50:53;;;;;;;14.93;5.60;;;11.50;99.90;;;;;;1891632;75;21579;-75
2021/10/02 05:53:19;;;;;;;6.75;5.75;;;11.60;99.90;;;;;;1892423;74;21442;-74
2021/10/02 05:55:45;;;;;;;9.78;6.42;;;11.60;99.90;;;;;;1893932;74;21493;-74
2021/10/02 05:58:11;;;;;;;16.82;6.53;;;11.70;99.90;;;;;;1892517;74;21576;-74
2021/10/02 06:00:37;;;;;;;7.62;6.05;;;11.70;99.90;;;;;;1893743;75;21054;-75
2021/10/02 06:03:03;;;;;;;9.20;6.03;;;11.80;99.90;;;;;;1895000;75;21086;-75
2021/10/02 06:05:31;;;;;;;8.73;5.50;;;11.90;99.90;;;;;;1891257;74;21085;-75
2021/10/02 06:07:57;;;;;;;12.35;5.87;;;12.00;99.90;;;;;;1887936;74;21097;-75
2021/10/02 06:10:23;;;;;;;7.35;5.47;;;12.00;99.90;;;;;;1892788;74;21535;-74
2021/10/02 06:12:52;;;;;;;16.70;5.92;;;12.10;99.90;;;;;;1890501;75;21485;-74
2021/10/02 06:15:17;;;;;;;8.00;5.72;;;12.10;99.90;;;;;;1892644;74;21106;-74
2021/10/02 06:17:43;;;;;;;7.85;5.33;;;12.20;99.90;;;;;;1889669;74;21508;-75
2021/10/02 06:20:09;;;;;;;8.40;5.60;;;12.20;99.90;;;;;;1891111;74;21568;-74
2021/10/02 06:22:37;;;;;;;7.58;5.67;;;12.20;99.90;;;;;;1893444;75;21310;-75
2021/10/02 06:25:03;;;;;;;9.75;6.22;;;12.20;99.90;;;;;;1895059;74;21081;-75
2021/10/02 06:27:32;;;;;;;10.80;5.90;;;12.30;99.90;;;;;;1890825;74;21082;-74
2021/10/02 06:29:57;;;;;;;11.63;6.62;;;12.40;99.90;;;;;;1889150;75;21084;-75
2021/10/02 06:32:23;;;;;;;10.25;5.70;;;12.30;99.90;;;;;;1890959;74;21147;-75
2021/10/02 06:34:49;;;;;;;8.65;5.85;;;12.30;99.90;;;;;;1885027;74;21086;-75
2021/10/02 06:37:15;;;;;;;8.90;5.92;;;12.30;99.90;;;;;;1887005;75;21082;-75
2021/10/02 06:39:41;;;;;;;8.00;5.72;;;12.40;99.90;;;;;;1888887;74;21079;-75
2021/10/02 06:42:08;;;;;;;10.90;5.30;;;12.40;99.90;;;;;;1893329;75;21082;-75
2021/10/02 06:44:34;;;;;;;10.03;5.83;;;12.40;99.90;;;;;;1889856;75;21085;-76
2021/10/02 06:47:00;;;;;;;9.63;5.87;;;12.60;99.90;;;;;;1891124;74;21051;-75
2021/10/02 06:49:27;;;;;;;9.43;6.15;;;12.50;99.90;;;;;;1893169;74;21085;-74
2021/10/02 06:51:54;;;;;;;8.80;5.62;;;12.60;99.90;;;;;;1890873;74;21090;-76
2021/10/02 06:54:20;;;;;;;9.10;5.67;;;12.70;99.90;;;;;;1890041;75;21093;-75
2021/10/02 06:56:46;;;;;;;9.53;6.12;;;12.80;99.90;;;;;;1894771;74;21184;-74
2021/10/02 06:59:12;;;;;;;7.35;5.22;;;12.80;99.90;;;;;;1891175;74;21082;-74
2021/10/02 07:01:39;;;;;;;6.15;5.50;;;12.90;99.90;;;;;;1895467;75;21089;-75
2021/10/02 07:04:05;;;;;;;8.90;5.55;;;12.80;99.90;;;;;;1889103;75;21090;-75
2021/10/02 07:06:33;;;;;;;12.23;5.42;;;12.90;99.90;;;;;;1895457;74;21447;-74
2021/10/02 07:08:59;;;;;;;7.40;5.67;;;12.80;99.90;;;;;;1891413;74;22552;-75
2021/10/02 07:11:25;;;;;;;15.30;6.72;;;12.90;99.90;;;;;;1890080;74;21234;-74
2021/10/02 07:13:52;;;;;;;16.85;7.15;;;13.00;99.90;;;;;;1898859;75;21078;-73
2021/10/02 07:16:20;;;;;;;24.07;5.33;;;13.10;99.90;;;;;;1896227;74;21155;-74
2021/10/02 07:18:46;;;;;;;10.82;5.85;;;13.20;99.90;;;;;;1883617;75;21553;-76
2021/10/02 07:21:13;;;;;;;6.75;5.50;;;13.20;99.90;;;;;;1893990;74;21486;-74
2021/10/02 07:23:39;;;;;;;11.53;5.95;;;13.40;99.90;;;;;;1892367;74;21136;-73
2021/10/02 07:26:07;;;;;;;9.00;5.62;;;13.30;99.90;;;;;;1883247;75;21051;-74
2021/10/02 07:28:33;;;;;;;8.05;5.75;;;13.40;99.90;;;;;;1893826;75;21105;-73
2021/10/02 07:30:59;;;;;;;13.88;5.58;;;13.50;99.90;;;;;;1892779;75;21085;-73
2021/10/02 07:33:26;;;;;;;8.30;5.53;;;13.50;99.90;;;;;;1882637;74;21159;-73
2021/10/02 07:35:52;;;;;;;11.22;5.80;;;13.60;99.90;;;;;;1893201;74;21054;-73
2021/10/02 07:38:19;;;;;;;8.45;5.33;;;13.50;99.90;;;;;;1889140;74;21159;-73
2021/10/02 07:40:45;;;;;;;9.13;5.45;;;13.60;99.90;;;;;;1889007;75;21135;-74
2021/10/02 07:43:11;;;;;;;7.60;4.83;;;13.70;99.90;;;;;;1882967;74;21153;-73
2021/10/02 07:45:37;;;;;;;10.60;5.35;;;13.80;99.90;;;;;;1892386;74;21225;-74
2021/10/02 07:48:03;;;;;;;8.55;5.33;;;13.80;99.90;;;;;;1893931;75;21098;-74
2021/10/02 07:50:29;;;;;;;8.23;5.92;;;13.70;99.90;;;;;;1897398;75;21151;-74
2021/10/02 07:52:55;;;;;;;7.55;5.67;;;13.60;99.90;;;;;;1891191;75;21050;-74
2021/10/02 07:55:21;;;;;;;7.72;5.50;;;13.70;99.90;;;;;;1884519;75;21097;-74
2021/10/02 07:57:48;;;;;;;11.20;5.90;;;13.80;99.90;;;;;;1889034;74;21159;-74
2021/10/02 08:00:14;;;;;;;7.40;5.53;;;14.00;99.90;;;;;;1882689;75;21257;-71
2021/10/02 08:02:40;;;;;;;7.03;5.50;;;14.20;99.90;;;;;;1890355;75;21455;-74
2021/10/02 08:05:06;;;;;;;10.20;5.60;;;14.30;99.90;;;;;;1877801;75;21482;-74
2021/10/02 08:07:32;;;;;;;12.80;6.00;;;14.50;99.90;;;;;;1891976;74;21509;-74
2021/10/02 08:09:58;;;;;;;12.47;5.47;;;14.60;99.90;;;;;;1895502;74;21595;-76
2021/10/02 08:12:24;;;;;;;9.00;5.70;;;14.80;99.90;;;;;;1888910;74;21618;-75
2021/10/02 08:14:50;;;;;;;8.83;6.03;;;15.00;99.90;;;;;;1891686;74;21494;-75
2021/10/02 08:17:16;;;;;;;7.45;5.37;;;15.10;99.90;;;;;;1881591;75;21081;-77
2021/10/02 08:19:43;;;;;;;7.95;4.80;;;15.40;99.90;;;;;;1899583;74;21046;-75
2021/10/02 08:22:09;;;;;;;9.58;5.55;;;15.50;99.90;;;;;;1892679;74;21077;-78
2021/10/02 08:24:36;;;;;;;13.53;5.15;;;15.80;99.90;;;;;;1890335;75;21081;-78
2021/10/02 08:27:03;;;;;;;12.25;5.55;;;16.00;99.90;;;;;;1890464;75;21512;-78
2021/10/02 08:29:32;;;;;;;8.80;4.67;;;16.10;99.90;;;;;;1887978;74;21501;-79
2021/10/02 08:31:58;;;;;;;11.18;5.50;;;16.20;99.90;;;;;;1888126;74;21149;-75
2021/10/02 08:34:24;;;;;;;9.13;5.28;;;16.40;99.90;;;;;;1884119;74;21093;-77
2021/10/02 08:36:50;;;;;;;10.93;4.40;;;16.50;99.90;;;;;;1890415;74;21089;-79
2021/10/02 08:39:16;;;;;;;6.03;4.15;;;16.90;99.90;;;;;;1891555;75;21163;-75
2021/10/02 08:41:42;;;;;;;7.03;4.50;;;17.20;99.90;;;;;;1892186;74;21462;-73
2021/10/02 08:44:10;;;;;;;5.47;4.30;;;17.30;99.90;;;;;;1891060;75;21583;-71
2021/10/02 08:46:36;;;;;;;5.50;3.90;;;17.40;99.90;;;;;;1891811;74;21097;-78
2021/10/02 08:49:02;;;;;;;8.75;4.55;;;17.60;99.90;;;;;;1889989;75;21090;-75
2021/10/02 08:51:28;;;;;;;5.45;4.03;;;17.70;99.90;;;;;;1895809;74;21089;-76
2021/10/02 08:53:54;;;;;;;7.92;4.17;;;17.70;99.90;;;;;;1893495;74;21144;-74
2021/10/02 08:56:20;;;;;;;5.70;4.08;;;18.30;99.90;;;;;;1884317;74;21160;-79
2021/10/02 08:58:46;;;;;;;6.42;4.12;;;18.30;99.90;;;;;;1881577;75;21098;-77
2021/10/02 09:01:13;;;;;;;5.72;3.83;;;18.40;99.90;;;;;;1887071;74;21086;-78
2021/10/02 09:03:39;;;;;;;6.08;4.00;;;18.50;99.90;;;;;;1892506;74;21082;-78
2021/10/02 09:06:05;;;;;;;5.22;3.67;;;18.90;99.90;;;;;;1888758;74;21083;-77
2021/10/02 09:08:31;;;;;;;7.92;4.35;;;19.10;99.90;;;;;;1879670;75;21064;-77
2021/10/02 09:10:57;;;;;;;5.95;4.00;;;19.00;99.90;;;;;;1888712;75;21607;-77
2021/10/02 09:13:23;;;;;;;4.08;3.10;;;18.90;99.90;;;;;;1882644;75;21564;-77
2021/10/02 09:15:49;;;;;;;6.08;3.45;;;19.40;99.90;;;;;;1882165;75;21543;-76
2021/10/02 09:18:15;;;;;;;4.05;3.47;;;19.60;99.90;;;;;;1886027;75;21463;-76
2021/10/02 09:20:42;;;;;;;6.85;3.15;;;20.00;99.90;;;;;;1886289;75;21498;-75
2021/10/02 09:23:08;;;;;;;4.12;3.08;;;20.50;99.90;;;;;;1886837;75;21078;-75
2021/10/02 09:25:35;;;;;;;3.42;2.65;;;20.50;99.90;;;;;;1886784;75;21098;-75
2021/10/02 09:28:01;;;;;;;4.92;2.87;;;20.80;99.90;;;;;;1882841;75;21075;-75
2021/10/02 09:30:27;;;;;;;3.67;2.77;;;20.90;99.90;;;;;;1879504;75;21051;-75
2021/10/02 09:32:53;;;;;;;6.92;2.67;;;21.00;99.90;;;;;;1879995;75;21078;-75
2021/10/02 09:35:19;;;;;;;4.08;2.50;;;21.50;99.90;;;;;;1879675;75;21078;-75
2021/10/02 09:37:45;;;;;;;4.65;2.25;;;21.50;99.90;;;;;;1886694;75;21086;-76
2021/10/02 09:40:13;;;;;;;3.52;2.20;;;21.90;99.90;;;;;;1888317;75;21070;-76
2021/10/02 09:42:39;;;;;;;3.15;2.47;;;22.30;99.90;;;;;;1884815;75;21063;-76
2021/10/02 09:45:05;;;;;;;4.35;2.37;;;22.10;99.90;;;;;;1884133;75;21148;-78
2021/10/02 09:47:32;;;;;;;2.67;2.12;;;22.60;99.90;;;;;;1886420;75;21101;-75
2021/10/02 09:49:58;;;;;;;4.25;2.40;;;22.30;99.90;;;;;;1883884;75;21078;-76
2021/10/02 09:52:24;;;;;;;3.98;2.30;;;22.40;99.90;;;;;;1879299;75;21121;-77
2021/10/02 09:54:50;;;;;;;4.05;2.20;;;22.10;99.90;;;;;;1882719;75;21078;-77
2021/10/02 09:57:16;;;;;;;3.33;2.37;;;22.50;99.90;;;;;;1889402;75;21117;-78
2021/10/02 09:59:42;;;;;;;3.50;2.35;;;22.90;99.90;;;;;;1886817;75;21148;-78
2021/10/02 10:02:08;;;;;;;3.00;2.08;;;23.10;99.90;;;;;;1880744;75;21076;-77
2021/10/02 10:04:35;;;;;;;3.45;2.30;;;22.90;99.90;;;;;;1885119;75;21143;-77
2021/10/02 10:07:01;;;;;;;4.53;2.02;;;23.00;99.90;;;;;;1889489;75;21152;-76
2021/10/02 10:09:27;;;;;;;11.70;2.25;;;22.60;99.90;;;;;;1892373;75;21207;-76
2021/10/02 10:11:53;;;;;;;3.50;2.20;;;22.90;99.90;;;;;;1892576;75;21102;-77
2021/10/02 10:14:19;;;;;;;2.45;1.85;;;23.00;99.90;;;;;;1887433;75;21066;-77
2021/10/02 10:16:45;;;;;;;3.55;2.37;;;23.00;99.90;;;;;;1889188;75;21085;-76
2021/10/02 10:19:11;;;;;;;2.12;1.85;;;23.10;99.90;;;;;;1885686;75;21083;-77
2021/10/02 10:21:37;;;;;;;2.92;1.95;;;23.60;99.90;;;;;;1880607;75;21047;-77
2021/10/02 10:24:04;;;;;;;3.35;2.05;;;24.20;99.90;;;;;;1884543;75;21213;-77
2021/10/02 10:26:30;;;;;;;4.20;2.00;;;24.40;99.90;;;;;;1886182;75;21094;-77
2021/10/02 10:28:56;;;;;;;8.08;2.10;;;23.90;99.90;;;;;;1890073;75;21089;-77
2021/10/02 10:31:25;;;;;;;4.62;2.02;;;23.50;99.90;;;;;;1888530;75;21056;-77
2021/10/02 10:33:52;;;;;;;7.62;1.90;;;23.90;99.90;;;;;;1889776;75;21054;-77
2021/10/02 10:36:18;;;;;;;2.30;1.70;;;23.80;99.90;;;;;;1886536;75;21083;-77
2021/10/02 10:38:44;;;;;;;2.40;1.90;;;23.80;99.90;;;;;;1889409;75;21089;-76
2021/10/02 10:41:10;;;;;;;2.27;1.87;;;23.60;99.90;;;;;;1881120;75;21088;-77
2021/10/02 10:43:36;;;;;;;2.95;1.80;;;23.80;99.90;;;;;;1886003;75;21399;-77
2021/10/02 10:46:03;;;;;;;10.40;2.10;;;24.20;99.90;;;;;;1886742;75;21080;-77
2021/10/02 10:48:29;;;;;;;2.33;1.95;;;24.60;99.90;;;;;;1886116;75;21176;-77
2021/10/02 10:50:55;;;;;;;2.62;1.95;;;24.50;99.90;;;;;;1888732;75;21096;-76
2021/10/02 10:53:21;;;;;;;2.58;2.10;;;24.40;99.90;;;;;;1884342;75;21046;-77
2021/10/02 10:55:47;;;;;;;1.95;1.75;;;24.50;99.90;;;;;;1876958;75;21076;-77
2021/10/02 10:58:13;;;;;;;3.12;2.02;;;25.20;99.90;;;;;;1884082;75;21288;-77
2021/10/02 11:00:39;;;;;;;1.85;1.60;;;24.90;99.90;;;;;;1883930;75;21158;-77
2021/10/02 11:03:11;;;;;;;2.52;1.80;;;24.60;99.90;;;;;;1888048;75;21208;-76
2021/10/02 11:05:33;;;;;;;2.02;1.67;;;24.90;99.90;;;;;;1885447;75;21045;-77
2021/10/02 11:07:59;;;;;;;2.85;1.98;;;25.00;99.90;;;;;;1884356;75;21186;-77
2021/10/02 11:10:26;;;;;;;3.22;2.12;;;25.20;99.90;;;;;;1888135;75;21574;-77
2021/10/02 11:12:52;;;;;;;8.38;1.98;;;24.50;99.90;;;;;;1886870;75;21588;-77
2021/10/02 11:15:18;;;;;;;4.30;2.20;;;24.50;99.90;;;;;;1886558;75;21445;-77
2021/10/02 11:17:47;;;;;;;2.42;2.05;;;24.50;99.90;;;;;;1887740;75;21496;-77
2021/10/02 11:20:13;;;;;;;3.27;1.82;;;24.40;99.90;;;;;;1882811;75;21093;-77
2021/10/02 11:22:47;;;;;;;2.90;1.85;;;24.60;99.90;;;;;;1889718;75;21161;-77
2021/10/02 11:25:07;;;;;;;2.17;1.92;;;25.10;99.90;;;;;;1882749;75;21104;-77
2021/10/02 11:27:33;;;;;;;2.60;2.08;;;25.10;99.90;;;;;;1883595;75;21084;-78
2021/10/02 11:30:00;;;;;;;4.28;1.90;;;25.10;99.90;;;;;;1882612;75;21084;-77
2021/10/02 11:32:30;;;;;;;3.58;1.87;;;24.70;99.90;;;;;;1887725;75;21078;-77
2021/10/02 11:34:53;;;;;;;7.65;1.80;;;25.20;99.90;;;;;;1889753;75;21517;-77
2021/10/02 11:37:20;;;;;;;4.40;1.90;;;25.60;99.90;;;;;;1889860;76;21469;-77
2021/10/02 11:39:46;;;;;;;3.80;1.90;;;25.60;99.90;;;;;;1888812;75;21195;-77
2021/10/02 11:42:14;;;;;;;3.37;2.47;;;25.70;99.90;;;;;;1882407;75;21179;-77
2021/10/02 11:44:44;;;;;;;3.20;1.95;;;26.10;99.90;;;;;;1883949;75;21590;-77
2021/10/02 11:47:08;;;;;;;3.45;2.80;;;25.90;99.90;;;;;;1890316;75;21126;-77
2021/10/02 11:49:35;;;;;;;5.95;3.33;;;26.20;99.90;;;;;;1887570;75;21097;-77
2021/10/02 11:52:01;;;;;;;3.95;1.85;;;26.40;99.90;;;;;;1884386;75;21167;-79
2021/10/02 11:54:27;;;;;;;2.60;1.90;;;26.50;99.90;;;;;;1883795;75;21132;-76
2021/10/02 11:56:53;;;;;;;3.40;2.00;;;26.90;99.90;;;;;;1880818;75;21097;-76
2021/10/02 11:59:19;;;;;;;5.53;2.75;;;27.10;99.90;;;;;;1883166;75;21090;-77
2021/10/02 12:01:45;;;;;;;5.83;2.08;;;27.50;99.90;;;;;;1885988;75;21137;-77
2021/10/02 12:04:11;;;;;;;6.00;2.37;;;27.30;99.90;;;;;;1889318;75;21498;-77
2021/10/02 12:06:37;;;;;;;3.90;2.50;;;26.80;99.90;;;;;;1886527;75;21126;-77
2021/10/02 12:09:04;;;;;;;4.12;2.35;;;26.90;99.90;;;;;;1885593;75;21085;-77
2021/10/02 12:11:31;;;;;;;2.42;1.87;;;27.30;99.90;;;;;;1891746;75;21101;-77
2021/10/02 12:13:57;;;;;;;4.20;2.52;;;27.70;99.90;;;;;;1889217;75;21501;-77
2021/10/02 12:16:23;;;;;;;2.10;1.90;;;27.20;99.90;;;;;;1885396;75;21554;-78
2021/10/02 12:18:49;;;;;;;3.95;2.40;;;27.10;99.90;;;;;;1888011;75;21493;-78
2021/10/02 12:21:15;;;;;;;2.45;1.77;;;27.60;99.90;;;;;;1884566;75;21462;-78
2021/10/02 12:23:41;;;;;;;3.52;2.35;;;28.20;99.30;;;;;;1889561;75;21439;-78
2021/10/02 12:26:07;;;;;;;4.97;2.15;;;27.60;99.90;;;;;;1877731;75;22976;-78
2021/10/02 12:28:34;;;;;;;15.80;2.22;;;27.70;99.90;;;;;;1885510;75;21591;-78
2021/10/02 12:31:01;;;;;;;2.55;1.65;;;27.60;99.90;;;;;;1888890;75;21508;-78
2021/10/02 12:33:27;;;;;;;3.58;1.98;;;28.00;99.80;;;;;;1886781;75;21080;-78
2021/10/02 12:35:53;;;;;;;4.95;2.08;;;27.20;99.90;;;;;;1887559;75;21143;-76
2021/10/02 12:38:19;;;;;;;8.25;1.95;;;27.30;99.70;;;;;;1887019;75;21229;-77
2021/10/02 12:40:45;;;;;;;4.00;2.22;;;27.50;99.90;;;;;;1889179;75;21093;-78
2021/10/02 12:43:11;;;;;;;2.08;1.87;;;27.70;99.70;;;;;;1886434;75;21150;-81
2021/10/02 12:45:40;;;;;;;1.90;1.80;;;27.60;99.90;;;;;;1881885;75;21277;-79
2021/10/02 12:48:05;;;;;;;2.62;2.02;;;27.40;99.00;;;;;;1889899;75;21166;-78
2021/10/02 12:50:31;;;;;;;1.75;1.65;;;27.00;99.90;;;;;;1887202;75;21050;-78
2021/10/02 12:52:58;;;;;;;3.20;2.08;;;26.70;99.90;;;;;;1888915;75;21077;-79
2021/10/02 12:55:24;;;;;;;2.83;2.00;;;26.50;99.90;;;;;;1888567;75;21147;-79
2021/10/02 12:57:50;;;;;;;3.58;1.95;;;26.40;99.90;;;;;;1887472;75;21084;-78
2021/10/02 13:00:17;;;;;;;1.67;1.50;;;26.30;99.90;;;;;;1887041;75;21500;-78
2021/10/02 13:02:43;;;;;;;3.33;1.90;;;26.20;99.70;;;;;;1884441;75;21077;-78
2021/10/02 13:05:09;;;;;;;6.67;1.60;;;25.90;99.90;;;;;;1883567;75;21076;-78
2021/10/02 13:07:35;;;;;;;2.62;1.80;;;25.60;99.90;;;;;;1879718;75;21084;-78
2021/10/02 13:10:01;;;;;;;1.95;1.72;;;25.50;99.90;;;;;;1886413;75;21155;-77
2021/10/02 13:12:28;;;;;;;2.70;1.90;;;25.70;99.90;;;;;;1887774;75;21116;-79
2021/10/02 13:14:55;;;;;;;2.25;1.90;;;25.80;99.90;;;;;;1891494;75;21089;-77
2021/10/02 13:17:22;;;;;;;3.08;1.82;;;26.00;99.90;;;;;;1887807;75;21199;-78
2021/10/02 13:19:48;;;;;;;2.17;1.82;;;26.30;99.90;;;;;;1889272;75;21105;-77
2021/10/02 13:22:14;;;;;;;1.85;1.70;;;26.60;99.80;;;;;;1888518;75;21096;-78
2021/10/02 13:24:40;;;;;;;4.35;2.30;;;27.00;99.10;;;;;;1886054;75;21068;-78
2021/10/02 13:27:07;;;;;;;2.85;1.87;;;27.60;98.90;;;;;;1884869;75;21139;-79
2021/10/02 13:29:34;;;;;;;2.17;1.60;;;28.60;97.20;;;;;;1886667;75;21081;-79
2021/10/02 13:32:00;;;;;;;4.28;2.10;;;29.20;96.50;;;;;;1881270;75;21103;-78